createdAt,value
2019-01-20T00:02:10.910Z,11.40
2019-01-20T00:04:55.670Z,14.57
2019-01-20T00:07:42.230Z,16.77
2019-01-20T00:10:16.890Z,16.33
2019-01-20T00:13:07.538Z,11.73
2019-01-20T00:15:47.307Z,13.20
2019-01-20T00:18:34.857Z,11.15
2019-01-20T00:21:30.545Z,12.83
2019-01-20T00:24:20.931Z,19.87
2019-01-20T00:26:58.350Z,12.40
2019-01-20T00:29:47.002Z,10.97
2019-01-20T00:32:22.373Z,12.17
2019-01-20T00:35:03.432Z,12.67
2019-01-20T00:37:37.913Z,12.77
2019-01-20T00:40:28.812Z,11.83
2019-01-20T00:43:04.385Z,12.20
2019-01-20T00:46:02.969Z,13.60
2019-01-20T00:48:29.839Z,14.17
2019-01-20T00:51:11.749Z,12.97
2019-01-20T00:53:49.683Z,14.87
2019-01-20T00:56:24.459Z,15.27
2019-01-20T00:59:11.429Z,17.07
2019-01-20T01:01:53.185Z,15.27
2019-01-20T01:04:51.845Z,14.23
2019-01-20T01:07:34.521Z,12.07
2019-01-20T01:10:26.907Z,14.87
2019-01-20T01:12:54.318Z,12.90
2019-01-20T01:15:32.575Z,13.20
2019-01-20T01:18:10.081Z,10.93
2019-01-20T01:20:42.953Z,10.03
2019-01-20T01:23:34.014Z,14.63
2019-01-20T01:26:09.587Z,13.30
2019-01-20T01:28:54.698Z,14.27
2019-01-20T01:31:30.309Z,15.88
2019-01-20T01:34:07.426Z,14.80
2019-01-20T01:36:40.902Z,11.77
2019-01-20T01:39:10.810Z,12.50
2019-01-20T01:41:45.028Z,11.20
2019-01-20T01:44:24.178Z,11.00
2019-01-20T01:46:53.930Z,13.67
2019-01-20T01:49:41.518Z,13.93
2019-01-20T01:52:15.346Z,13.87
2019-01-20T01:54:57.282Z,11.33
2019-01-20T01:57:44.095Z,11.77
2019-01-20T02:00:22.410Z,12.60
2019-01-20T02:02:52.531Z,13.23
2019-01-20T02:05:22.111Z,14.40
2019-01-20T02:07:51.753Z,13.77
2019-01-20T02:10:27.994Z,16.90
2019-01-20T02:13:01.220Z,13.97
2019-01-20T02:15:31.116Z,11.90
2019-01-20T02:18:00.575Z,12.23
2019-01-20T02:20:31.598Z,13.67
2019-01-20T02:23:01.686Z,14.10
2019-01-20T02:25:31.343Z,11.60
2019-01-20T02:28:01.507Z,11.57
2019-01-20T02:30:32.407Z,10.87
2019-01-20T02:33:02.477Z,12.07
2019-01-20T02:35:32.039Z,13.43
2019-01-20T02:38:03.227Z,12.33
2019-01-20T02:40:33.311Z,12.07
2019-01-20T02:43:06.670Z,14.10
2019-01-20T02:45:36.166Z,10.47
2019-01-20T02:48:06.423Z,11.87
2019-01-20T02:50:37.759Z,13.33
2019-01-20T02:53:06.815Z,12.27
2019-01-20T02:55:36.329Z,10.93
2019-01-20T02:58:09.644Z,12.03
2019-01-20T03:00:38.989Z,13.07
2019-01-20T03:03:09.322Z,11.33
2019-01-20T03:05:39.443Z,13.93
2019-01-20T03:08:09.035Z,16.20
2019-01-20T03:10:39.711Z,12.97
2019-01-20T03:13:11.918Z,11.53
2019-01-20T03:15:41.258Z,12.00
2019-01-20T03:18:21.960Z,13.07
2019-01-20T03:20:56.673Z,12.27
2019-01-20T03:23:33.587Z,14.80
2019-01-20T03:26:03.176Z,14.57
2019-01-20T03:28:32.370Z,13.43
2019-01-20T03:31:06.137Z,12.00
2019-01-20T03:33:35.505Z,13.13
2019-01-20T03:36:04.752Z,11.73
2019-01-20T03:38:35.982Z,11.77
2019-01-20T03:41:05.674Z,13.67
2019-01-20T03:43:35.110Z,14.43
2019-01-20T03:46:07.329Z,11.57
2019-01-20T03:48:36.592Z,10.87
2019-01-20T03:51:06.294Z,13.97
2019-01-20T03:53:36.079Z,15.07
2019-01-20T03:56:06.339Z,12.10
2019-01-20T03:58:38.874Z,13.13
2019-01-20T04:01:08.332Z,11.60
2019-01-20T04:03:37.958Z,11.93
2019-01-20T04:06:08.316Z,12.77
2019-01-20T04:08:37.647Z,11.47
2019-01-20T04:11:06.729Z,13.97
2019-01-20T04:13:37.655Z,13.50
2019-01-20T04:16:07.703Z,13.20
2019-01-20T04:18:41.367Z,9.80
2019-01-20T04:21:16.826Z,12.63
2019-01-20T04:23:50.142Z,9.90
2019-01-20T04:26:19.742Z,13.00
2019-01-20T04:28:50.251Z,17.63
2019-01-20T04:31:19.875Z,14.33
2019-01-20T04:33:49.781Z,12.57
2019-01-20T04:36:20.205Z,10.50
2019-01-20T04:38:50.259Z,11.50
2019-01-20T04:41:19.388Z,11.83
2019-01-20T04:43:49.736Z,11.13
2019-01-20T04:46:18.865Z,11.07
2019-01-20T04:48:48.786Z,15.60
2019-01-20T04:51:18.753Z,11.97
2019-01-20T04:53:50.924Z,13.27
2019-01-20T04:56:21.252Z,11.27
2019-01-20T04:58:51.040Z,12.13
2019-01-20T05:01:22.621Z,15.67
2019-01-20T05:03:51.982Z,13.37
2019-01-20T05:06:21.848Z,12.57
2019-01-20T05:08:52.476Z,11.57
2019-01-20T05:11:22.275Z,11.80
2019-01-20T05:13:52.188Z,14.77
2019-01-20T05:16:23.132Z,14.83
2019-01-20T05:18:53.362Z,12.13
2019-01-20T05:21:33.662Z,14.93
2019-01-20T05:24:03.082Z,12.40
2019-01-20T05:26:32.432Z,13.93
2019-01-20T05:29:03.800Z,11.80
2019-01-20T05:31:33.232Z,15.03
2019-01-20T05:34:02.800Z,11.67
2019-01-20T05:36:32.888Z,10.97
2019-01-20T05:39:01.900Z,13.07
2019-01-20T05:41:30.928Z,11.60
2019-01-20T05:44:01.803Z,11.00
2019-01-20T05:46:31.268Z,13.93
2019-01-20T05:49:00.989Z,11.67
2019-01-20T05:51:39.350Z,11.50
2019-01-20T05:54:09.067Z,10.93
2019-01-20T05:56:38.211Z,11.20
2019-01-20T05:59:09.252Z,13.47
2019-01-20T06:01:38.792Z,12.97
2019-01-20T06:04:07.895Z,12.20
2019-01-20T06:06:38.106Z,12.23
2019-01-20T06:09:09.935Z,12.47
2019-01-20T06:11:40.502Z,13.37
2019-01-20T06:14:10.063Z,15.53
2019-01-20T06:16:39.119Z,10.80
2019-01-20T06:19:11.542Z,12.43
2019-01-20T06:21:42.569Z,12.67
2019-01-20T06:24:14.767Z,10.80
2019-01-20T06:26:44.631Z,12.07
2019-01-20T06:29:14.175Z,9.58
2019-01-20T06:31:45.752Z,11.20
2019-01-20T06:34:17.880Z,12.20
2019-01-20T06:36:47.678Z,13.40
2019-01-20T06:39:17.318Z,10.47
2019-01-20T06:41:46.395Z,11.80
2019-01-20T06:44:15.935Z,12.80
2019-01-20T06:46:44.966Z,10.43
2019-01-20T06:49:14.324Z,11.77
2019-01-20T06:51:44.555Z,14.47
2019-01-20T06:54:13.878Z,13.03
2019-01-20T06:56:43.612Z,13.07
2019-01-20T06:59:14.198Z,16.57
2019-01-20T07:01:49.788Z,14.10
2019-01-20T07:05:03.090Z,14.13
2019-01-20T07:07:38.412Z,15.13
2019-01-20T07:10:40.114Z,11.77
2019-01-20T07:13:26.492Z,12.90
2019-01-20T07:16:26.234Z,12.13
2019-01-20T07:19:02.658Z,10.83
2019-01-20T07:21:57.121Z,12.73
2019-01-20T07:24:41.507Z,11.87
2019-01-20T07:27:11.133Z,11.07
2019-01-20T07:30:04.351Z,12.10
2019-01-20T07:32:59.954Z,13.63
2019-01-20T07:35:45.744Z,18.90
2019-01-20T07:38:27.875Z,19.33
2019-01-20T07:41:14.933Z,14.57
2019-01-20T07:44:00.163Z,13.43
2019-01-20T07:46:55.233Z,14.33
2019-01-20T07:49:50.609Z,11.73
2019-01-20T07:52:44.331Z,12.47
2019-01-20T07:55:22.441Z,13.00
2019-01-20T07:57:53.497Z,14.63
2019-01-20T08:00:36.221Z,13.97
2019-01-20T08:03:07.259Z,11.93
2019-01-20T08:05:36.707Z,13.60
2019-01-20T08:08:06.104Z,11.97
2019-01-20T08:10:36.210Z,15.37
2019-01-20T08:13:06.341Z,14.17
2019-01-20T08:15:35.950Z,12.43
2019-01-20T08:18:09.455Z,15.63
2019-01-20T08:20:39.269Z,12.18
2019-01-20T08:23:08.811Z,12.67
2019-01-20T08:25:40.341Z,13.73
2019-01-20T08:28:10.000Z,10.37
2019-01-20T08:30:42.272Z,11.83
2019-01-20T08:33:11.750Z,12.70
2019-01-20T08:35:41.222Z,12.17
2019-01-20T08:38:11.280Z,14.87
2019-01-20T08:40:41.289Z,14.80
2019-01-20T08:43:11.620Z,15.27
2019-01-20T08:45:50.054Z,11.03
2019-01-20T08:48:23.562Z,12.97
2019-01-20T08:50:53.344Z,13.03
2019-01-20T08:53:22.482Z,11.07
2019-01-20T08:55:53.072Z,13.40
2019-01-20T08:58:23.902Z,12.60
2019-01-20T09:00:54.101Z,10.87
2019-01-20T09:03:28.134Z,12.80
2019-01-20T09:06:01.117Z,12.43
2019-01-20T09:08:31.046Z,10.13
2019-01-20T09:11:01.533Z,13.63
2019-01-20T09:13:31.218Z,11.97
2019-01-20T09:16:04.701Z,11.47
2019-01-20T09:18:33.841Z,12.80
2019-01-20T09:21:03.097Z,10.77
2019-01-20T09:23:32.880Z,12.97
2019-01-20T09:26:02.820Z,13.40
2019-01-20T09:28:34.455Z,11.37
2019-01-20T09:31:03.827Z,11.27
2019-01-20T09:33:32.924Z,13.37
2019-01-20T09:36:04.067Z,12.10
2019-01-20T09:38:33.149Z,11.37
2019-01-20T09:41:05.874Z,12.67
2019-01-20T09:43:35.975Z,9.83
2019-01-20T09:46:10.241Z,13.47
2019-01-20T09:48:43.430Z,10.37
2019-01-20T09:51:14.634Z,10.57
2019-01-20T09:53:44.359Z,10.80
2019-01-20T09:56:13.692Z,11.53
2019-01-20T09:58:45.197Z,12.73
2019-01-20T10:01:14.743Z,11.80
2019-01-20T10:03:44.849Z,10.83
2019-01-20T10:06:15.554Z,12.67
2019-01-20T10:08:44.778Z,10.90
2019-01-20T10:11:13.964Z,9.07
2019-01-20T10:13:45.311Z,10.87
2019-01-20T10:16:14.524Z,12.13
2019-01-20T10:18:43.631Z,9.63
2019-01-20T10:21:15.342Z,10.83
2019-01-20T10:23:45.866Z,11.00
2019-01-20T10:26:18.301Z,10.40
2019-01-20T10:28:47.734Z,12.17
2019-01-20T10:31:19.756Z,11.60
2019-01-20T10:33:49.670Z,11.57
2019-01-20T10:36:19.144Z,11.70
2019-01-20T10:38:50.703Z,11.17
2019-01-20T10:41:20.634Z,12.67
2019-01-20T10:43:50.006Z,9.80
2019-01-20T10:46:20.030Z,10.57
2019-01-20T10:48:49.112Z,11.13
2019-01-20T10:51:18.678Z,11.70
2019-01-20T10:53:53.130Z,11.50
2019-01-20T10:56:25.315Z,10.10
2019-01-20T10:58:56.599Z,10.40
2019-01-20T11:01:50.959Z,10.07
2019-01-20T11:04:59.823Z,9.67
2019-01-20T11:07:51.089Z,10.63
2019-01-20T11:11:01.509Z,8.47
2019-01-20T11:13:50.889Z,11.13
2019-01-20T11:16:33.211Z,11.13
2019-01-20T11:19:40.337Z,9.80
2019-01-20T11:22:24.319Z,10.53
2019-01-20T11:25:09.619Z,11.90
2019-01-20T11:28:14.660Z,11.67
2019-01-20T11:30:44.797Z,10.40
2019-01-20T11:33:45.733Z,7.63
2019-01-20T11:36:34.432Z,12.60
2019-01-20T11:39:36.977Z,11.50
2019-01-20T11:42:24.565Z,8.87
2019-01-20T11:45:18.777Z,9.03
2019-01-20T11:48:10.665Z,9.73
2019-01-20T11:51:07.392Z,9.53
2019-01-20T11:53:41.604Z,11.17
2019-01-20T11:56:22.581Z,12.43
2019-01-20T11:59:06.589Z,9.83
2019-01-20T12:01:42.624Z,10.20
2019-01-20T12:04:12.364Z,11.07
2019-01-20T12:06:43.564Z,10.57
2019-01-20T12:09:14.037Z,8.50
2019-01-20T12:11:43.762Z,13.13
2019-01-20T12:14:13.180Z,15.60
2019-01-20T12:16:43.770Z,10.83
2019-01-20T12:19:14.148Z,9.57
2019-01-20T12:21:43.283Z,11.17
2019-01-20T12:24:16.181Z,8.23
2019-01-20T12:26:48.378Z,9.67
2019-01-20T12:29:17.757Z,9.40
2019-01-20T12:31:47.577Z,8.13
2019-01-20T12:34:16.666Z,8.63
2019-01-20T12:36:46.559Z,7.83
2019-01-20T12:39:16.683Z,9.80
2019-01-20T12:41:48.047Z,11.20
2019-01-20T12:44:17.923Z,10.07
2019-01-20T12:46:47.686Z,9.93
2019-01-20T12:49:18.203Z,8.93
2019-01-20T12:51:47.303Z,6.27
2019-01-20T12:54:16.454Z,15.53
2019-01-20T12:56:47.636Z,13.70
2019-01-20T12:59:16.797Z,7.83
2019-01-20T13:01:46.707Z,9.17
2019-01-20T13:04:17.679Z,8.20
2019-01-20T13:06:47.351Z,14.93
2019-01-20T13:09:16.423Z,8.00
2019-01-20T13:11:46.646Z,8.13
2019-01-20T13:14:15.732Z,19.50
2019-01-20T13:16:50.844Z,16.33
2019-01-20T13:19:20.688Z,12.60
2019-01-20T13:21:56.958Z,10.77
2019-01-20T13:24:26.714Z,9.63
2019-01-20T13:26:57.573Z,9.53
2019-01-20T13:29:32.336Z,8.07
2019-01-20T13:32:01.998Z,7.53
2019-01-20T13:34:31.008Z,7.17
2019-01-20T13:37:01.322Z,6.90
2019-01-20T13:39:31.020Z,5.13
2019-01-20T13:42:07.699Z,7.27
2019-01-20T13:44:37.426Z,10.43
2019-01-20T13:47:06.890Z,13.17
2019-01-20T13:49:37.640Z,9.87
2019-01-20T13:52:06.920Z,7.87
2019-01-20T13:54:39.926Z,9.07
2019-01-20T13:57:09.517Z,7.00
2019-01-20T13:59:38.878Z,9.53
2019-01-20T14:02:10.223Z,8.83
2019-01-20T14:04:40.295Z,6.63
2019-01-20T14:07:09.544Z,6.80
2019-01-20T14:09:40.855Z,9.63
2019-01-20T14:12:10.117Z,7.20
2019-01-20T14:14:45.456Z,7.97
2019-01-20T14:17:14.886Z,4.93
2019-01-20T14:19:45.166Z,5.73
2019-01-20T14:22:15.341Z,7.07
2019-01-20T14:24:45.119Z,6.63
2019-01-20T14:27:14.605Z,5.80
2019-01-20T14:29:44.643Z,4.97
2019-01-20T14:32:14.586Z,5.80
2019-01-20T14:34:46.091Z,7.20
2019-01-20T14:37:17.171Z,6.60
2019-01-20T14:39:47.219Z,7.57
2019-01-20T14:42:19.501Z,7.80
2019-01-20T14:44:49.267Z,7.30
2019-01-20T14:47:18.337Z,6.30
2019-01-20T14:49:48.543Z,7.67
2019-01-20T14:52:21.127Z,6.60
2019-01-20T14:54:51.426Z,6.37
2019-01-20T14:57:21.243Z,7.13
2019-01-20T14:59:53.681Z,8.53
2019-01-20T15:02:30.756Z,7.67
2019-01-20T15:05:14.132Z,10.93
2019-01-20T15:08:30.375Z,17.13
2019-01-20T15:11:26.040Z,15.17
2019-01-20T15:14:16.647Z,8.83
2019-01-20T15:17:02.940Z,8.53
2019-01-20T15:20:01.182Z,9.63
2019-01-20T15:22:53.443Z,10.87
2019-01-20T15:25:55.395Z,8.57
2019-01-20T15:28:25.621Z,9.00
2019-01-20T15:30:58.430Z,10.13
2019-01-20T15:33:28.178Z,10.17
2019-01-20T15:35:57.676Z,9.77
2019-01-20T15:38:27.432Z,10.47
2019-01-20T15:40:57.246Z,9.93
2019-01-20T15:43:26.768Z,11.80
2019-01-20T15:45:57.562Z,11.87
2019-01-20T15:48:28.471Z,12.77
2019-01-20T15:51:06.518Z,16.73
2019-01-20T15:53:36.879Z,22.58
2019-01-20T15:56:06.999Z,21.13
2019-01-20T15:58:36.293Z,17.40
2019-01-20T16:01:14.826Z,16.20
2019-01-20T16:03:43.941Z,14.30
2019-01-20T16:06:13.311Z,13.73
2019-01-20T16:08:44.151Z,15.83
2019-01-20T16:11:18.529Z,15.00
2019-01-20T16:13:50.701Z,13.73
2019-01-20T16:16:20.231Z,10.17
2019-01-20T16:18:49.319Z,12.60
2019-01-20T16:21:18.582Z,9.50
2019-01-20T16:23:49.059Z,10.10
2019-01-20T16:26:20.120Z,8.03
2019-01-20T16:28:50.444Z,10.00
2019-01-20T16:31:19.832Z,10.10
2019-01-20T16:33:50.656Z,15.33
2019-01-20T16:36:20.149Z,14.80
2019-01-20T16:38:49.896Z,12.63
2019-01-20T16:41:19.969Z,10.87
2019-01-20T16:43:49.315Z,10.03
2019-01-20T16:46:18.931Z,11.03
2019-01-20T16:48:49.919Z,12.23
2019-01-20T16:51:19.608Z,9.60
2019-01-20T16:53:48.689Z,9.23
2019-01-20T16:56:19.256Z,12.73
2019-01-20T16:58:51.423Z,9.47
2019-01-20T17:01:21.050Z,11.43
2019-01-20T17:03:53.780Z,9.43
2019-01-20T17:06:23.199Z,10.93
2019-01-20T17:08:52.990Z,11.53
2019-01-20T17:11:22.354Z,10.93
2019-01-20T17:13:51.392Z,11.43
2019-01-20T17:16:20.734Z,9.80
2019-01-20T17:18:50.687Z,10.63
2019-01-20T17:21:20.190Z,12.53
2019-01-20T17:23:49.464Z,10.73
2019-01-20T17:26:21.174Z,11.33
2019-01-20T17:28:54.422Z,14.27
2019-01-20T17:31:24.792Z,9.87
2019-01-20T17:33:54.798Z,11.83
2019-01-20T17:36:24.171Z,12.07
2019-01-20T17:38:54.552Z,13.87
2019-01-20T17:41:24.872Z,11.63
2019-01-20T17:43:54.180Z,13.17
2019-01-20T17:46:24.745Z,12.50
2019-01-20T17:48:54.665Z,11.23
2019-01-20T17:51:24.133Z,10.10
2019-01-20T17:53:55.278Z,10.43
2019-01-20T17:56:26.838Z,10.47
2019-01-20T17:58:57.815Z,9.73
2019-01-20T18:01:26.887Z,10.60
2019-01-20T18:03:56.257Z,14.77
2019-01-20T18:06:25.377Z,11.37
2019-01-20T18:08:54.470Z,14.00
2019-01-20T18:11:25.389Z,11.83
2019-01-20T18:13:54.489Z,12.33
2019-01-20T18:16:23.610Z,10.03
2019-01-20T18:18:52.878Z,9.37
2019-01-20T18:21:21.998Z,10.73
2019-01-20T18:23:51.087Z,12.47
2019-01-20T18:26:20.142Z,9.63
2019-01-20T18:28:49.236Z,12.20
2019-01-20T18:31:18.330Z,12.60
2019-01-20T18:33:47.728Z,10.23
2019-01-20T18:36:16.728Z,12.73
2019-01-20T18:38:45.868Z,10.73
2019-01-20T18:41:14.984Z,11.33
2019-01-20T18:43:44.102Z,11.03
2019-01-20T18:46:13.200Z,11.73
2019-01-20T18:48:42.291Z,10.20
2019-01-20T18:51:11.373Z,13.57
2019-01-20T18:53:40.483Z,14.87
2019-01-20T18:56:09.534Z,11.33
2019-01-20T18:58:38.744Z,13.97
2019-01-20T19:01:09.032Z,12.93
2019-01-20T19:03:38.112Z,12.53
2019-01-20T19:06:07.199Z,14.90
2019-01-20T19:08:36.262Z,14.53
2019-01-20T19:11:05.787Z,11.60
2019-01-20T19:13:34.895Z,11.43
2019-01-20T19:16:08.833Z,13.47
2019-01-20T19:18:35.179Z,10.45
2019-01-20T19:21:04.427Z,12.37
2019-01-20T19:23:33.550Z,14.93
2019-01-20T19:26:03.619Z,16.63
2019-01-20T19:28:32.729Z,16.53
2019-01-20T19:31:01.946Z,15.27
2019-01-20T19:33:31.001Z,18.37
2019-01-20T19:36:00.121Z,14.70
2019-01-20T19:38:29.235Z,15.53
2019-01-20T19:40:58.382Z,13.97
2019-01-20T19:43:27.461Z,16.87
2019-01-20T19:45:56.630Z,14.63
2019-01-20T19:48:25.763Z,12.20
2019-01-20T19:50:54.879Z,15.57
2019-01-20T19:53:23.947Z,15.43
2019-01-20T19:55:53.023Z,13.67
2019-01-20T19:58:22.095Z,14.30
2019-01-20T20:00:51.217Z,14.00
2019-01-20T20:03:20.317Z,11.70
2019-01-20T20:05:49.876Z,18.07
2019-01-20T20:08:19.003Z,16.13
2019-01-20T20:10:48.119Z,16.90
2019-01-20T20:13:17.198Z,13.73
2019-01-20T20:15:47.425Z,15.00
2019-01-20T20:18:16.556Z,15.27
2019-01-20T20:20:45.636Z,15.40
2019-01-20T20:23:14.759Z,14.87
2019-01-20T20:25:43.752Z,16.57
2019-01-20T20:28:12.837Z,16.73
2019-01-20T20:30:41.995Z,14.17
2019-01-20T20:33:11.101Z,14.50
2019-01-20T20:35:40.190Z,13.80
2019-01-20T20:38:09.312Z,15.60
2019-01-20T20:40:38.399Z,16.63
2019-01-20T20:43:07.482Z,14.63
2019-01-20T20:45:36.767Z,15.20
2019-01-20T20:48:06.059Z,15.53
2019-01-20T20:50:36.018Z,16.80
2019-01-20T20:53:06.377Z,14.40
2019-01-20T20:55:35.456Z,17.43
2019-01-20T20:58:04.788Z,16.73
2019-01-20T21:00:45.204Z,17.10
2019-01-20T21:03:20.386Z,19.03
2019-01-20T21:05:49.529Z,17.00
2019-01-20T21:08:18.584Z,16.77
2019-01-20T21:10:47.704Z,18.87
2019-01-20T21:13:16.943Z,19.77
2019-01-20T21:15:46.048Z,18.90
2019-01-20T21:18:15.121Z,21.43
2019-01-20T21:20:44.766Z,16.50
2019-01-20T21:23:13.894Z,18.50
2019-01-20T21:25:42.955Z,19.47
2019-01-20T21:28:12.039Z,22.50
2019-01-20T21:30:42.452Z,20.17
2019-01-20T21:33:11.545Z,18.23
2019-01-20T21:35:41.110Z,18.23
2019-01-20T21:38:10.401Z,16.73
2019-01-20T21:40:39.485Z,16.05
2019-01-20T21:43:08.653Z,17.77
2019-01-20T21:45:37.754Z,20.57
2019-01-20T21:48:07.748Z,23.77
2019-01-20T21:50:37.131Z,24.37
2019-01-20T21:53:06.326Z,22.67
2019-01-20T21:55:35.410Z,24.27
2019-01-20T21:58:04.594Z,22.07
2019-01-20T22:00:36.805Z,21.93
2019-01-20T22:03:06.817Z,25.37
2019-01-20T22:05:35.916Z,25.63
2019-01-20T22:08:05.008Z,24.10
2019-01-20T22:10:34.091Z,23.10
2019-01-20T22:13:03.207Z,26.10
2019-01-20T22:15:32.400Z,20.03
2019-01-20T22:18:03.086Z,24.33
2019-01-20T22:20:32.459Z,22.83
2019-01-20T22:23:01.554Z,21.57
2019-01-20T22:25:30.599Z,23.07
2019-01-20T22:27:59.676Z,23.17
2019-01-20T22:30:29.770Z,22.47
2019-01-20T22:32:58.974Z,24.23
2019-01-20T22:35:28.067Z,26.50
2019-01-20T22:37:57.148Z,18.03
2019-01-20T22:40:26.214Z,23.67
2019-01-20T22:42:55.408Z,21.93
2019-01-20T22:45:28.682Z,25.13
2019-01-20T22:47:57.789Z,21.63
2019-01-20T22:50:26.906Z,33.20
2019-01-20T22:52:56.522Z,26.77
2019-01-20T22:55:25.882Z,22.67
2019-01-20T22:57:55.074Z,30.43
2019-01-20T23:00:37.250Z,22.63
2019-01-20T23:03:06.421Z,21.47
2019-01-20T23:05:35.765Z,20.90
2019-01-20T23:08:04.845Z,22.93
2019-01-20T23:10:33.942Z,22.33
2019-01-20T23:13:03.146Z,22.23
2019-01-20T23:15:32.249Z,21.50
2019-01-20T23:18:01.424Z,22.00
2019-01-20T23:20:30.560Z,21.40
2019-01-20T23:22:59.633Z,21.43
2019-01-20T23:25:28.733Z,22.47
2019-01-20T23:27:57.791Z,22.07
2019-01-20T23:30:26.957Z,21.40
2019-01-20T23:32:56.021Z,23.67
2019-01-20T23:35:25.119Z,22.47
2019-01-20T23:37:54.225Z,24.27
2019-01-20T23:40:23.328Z,25.00
2019-01-20T23:42:52.425Z,23.97
2019-01-20T23:45:21.465Z,20.57
2019-01-20T23:47:50.606Z,17.23
2019-01-20T23:50:19.865Z,23.07
2019-01-20T23:52:48.936Z,25.73
2019-01-20T23:55:18.130Z,20.23
2019-01-20T23:57:47.202Z,23.40
